sensor_id;sensor_type;location;lat;lon;timestamp;P1;durP1;ratioP1;P2;durP2;ratioP2
60722;SDS011;46574;52.818;6.516;2022-12-29T00:01:56;7.60;;;6.90;;
60722;SDS011;46574;52.818;6.516;2022-12-29T00:04:22;7.35;;;6.68;;
60722;SDS011;46574;52.818;6.516;2022-12-29T00:06:47;7.85;;;7.03;;
60722;SDS011;46574;52.818;6.516;2022-12-29T00:09:13;7.10;;;6.40;;
60722;SDS011;46574;52.818;6.516;2022-12-29T00:11:40;7.03;;;6.43;;
60722;SDS011;46574;52.818;6.516;2022-12-29T00:14:08;7.15;;;6.45;;
60722;SDS011;46574;52.818;6.516;2022-12-29T00:16:53;7.10;;;6.40;;
60722;SDS011;46574;52.818;6.516;2022-12-29T00:19:19;7.10;;;6.50;;
60722;SDS011;46574;52.818;6.516;2022-12-29T00:22:04;7.03;;;6.32;;
60722;SDS011;46574;52.818;6.516;2022-12-29T00:24:48;7.38;;;6.68;;
60722;SDS011;46574;52.818;6.516;2022-12-29T00:27:32;7.20;;;6.50;;
60722;SDS011;46574;52.818;6.516;2022-12-29T00:30:20;6.75;;;6.15;;
60722;SDS011;46574;52.818;6.516;2022-12-29T00:33:13;6.28;;;5.75;;
60722;SDS011;46574;52.818;6.516;2022-12-29T00:38:49;6.57;;;5.93;;
60722;SDS011;46574;52.818;6.516;2022-12-29T00:41:49;6.38;;;5.78;;
60722;SDS011;46574;52.818;6.516;2022-12-29T00:44:33;5.80;;;5.30;;
60722;SDS011;46574;52.818;6.516;2022-12-29T00:46:58;5.75;;;5.25;;
60722;SDS011;46574;52.818;6.516;2022-12-29T00:49:29;6.55;;;5.45;;
60722;SDS011;46574;52.818;6.516;2022-12-29T00:51:59;6.05;;;5.45;;
60722;SDS011;46574;52.818;6.516;2022-12-29T00:54:37;6.38;;;5.78;;
60722;SDS011;46574;52.818;6.516;2022-12-29T00:57:04;5.45;;;4.95;;
60722;SDS011;46574;52.818;6.516;2022-12-29T00:59:31;5.78;;;5.20;;
60722;SDS011;46574;52.818;6.516;2022-12-29T01:01:59;5.55;;;4.95;;
60722;SDS011;46574;52.818;6.516;2022-12-29T01:04:25;5.28;;;4.70;;
60722;SDS011;46574;52.818;6.516;2022-12-29T01:06:51;5.07;;;4.57;;
60722;SDS011;46574;52.818;6.516;2022-12-29T01:09:17;5.28;;;4.80;;
60722;SDS011;46574;52.818;6.516;2022-12-29T01:12:03;5.13;;;4.63;;
60722;SDS011;46574;52.818;6.516;2022-12-29T01:14:29;5.15;;;4.45;;
60722;SDS011;46574;52.818;6.516;2022-12-29T01:16:55;4.50;;;4.10;;
60722;SDS011;46574;52.818;6.516;2022-12-29T01:19:22;4.70;;;4.30;;
60722;SDS011;46574;52.818;6.516;2022-12-29T01:21:48;5.20;;;4.32;;
60722;SDS011;46574;52.818;6.516;2022-12-29T01:24:17;5.07;;;4.57;;
60722;SDS011;46574;52.818;6.516;2022-12-29T01:26:44;4.47;;;4.07;;
60722;SDS011;46574;52.818;6.516;2022-12-29T01:29:10;4.07;;;3.78;;
60722;SDS011;46574;52.818;6.516;2022-12-29T01:31:36;4.72;;;4.32;;
60722;SDS011;46574;52.818;6.516;2022-12-29T01:34:02;6.10;;;4.65;;
60722;SDS011;46574;52.818;6.516;2022-12-29T01:36:28;5.18;;;3.92;;
60722;SDS011;46574;52.818;6.516;2022-12-29T01:38:54;3.83;;;3.40;;
60722;SDS011;46574;52.818;6.516;2022-12-29T01:41:19;4.00;;;3.67;;
60722;SDS011;46574;52.818;6.516;2022-12-29T01:43:50;5.38;;;3.90;;
60722;SDS011;46574;52.818;6.516;2022-12-29T01:46:23;4.05;;;3.70;;
60722;SDS011;46574;52.818;6.516;2022-12-29T01:49:04;4.00;;;3.50;;
60722;SDS011;46574;52.818;6.516;2022-12-29T01:51:39;7.00;;;4.13;;
60722;SDS011;46574;52.818;6.516;2022-12-29T01:54:13;4.50;;;3.90;;
60722;SDS011;46574;52.818;6.516;2022-12-29T01:57:03;4.07;;;3.65;;
60722;SDS011;46574;52.818;6.516;2022-12-29T01:59:40;3.63;;;3.33;;
60722;SDS011;46574;52.818;6.516;2022-12-29T02:02:10;3.97;;;3.67;;
60722;SDS011;46574;52.818;6.516;2022-12-29T02:04:37;4.05;;;3.63;;
60722;SDS011;46574;52.818;6.516;2022-12-29T02:07:09;4.93;;;3.40;;
60722;SDS011;46574;52.818;6.516;2022-12-29T02:09:43;4.07;;;3.20;;
60722;SDS011;46574;52.818;6.516;2022-12-29T02:12:11;4.20;;;3.10;;
60722;SDS011;46574;52.818;6.516;2022-12-29T02:14:37;3.70;;;3.10;;
60722;SDS011;46574;52.818;6.516;2022-12-29T02:30:55;4.18;;;3.22;;
60722;SDS011;46574;52.818;6.516;2022-12-29T02:33:52;3.60;;;3.30;;
60722;SDS011;46574;52.818;6.516;2022-12-29T02:36:22;5.00;;;3.20;;
60722;SDS011;46574;52.818;6.516;2022-12-29T02:44:25;3.30;;;2.67;;
60722;SDS011;46574;52.818;6.516;2022-12-29T02:47:41;3.05;;;2.75;;
60722;SDS011;46574;52.818;6.516;2022-12-29T02:50:20;3.38;;;3.08;;
60722;SDS011;46574;52.818;6.516;2022-12-29T02:52:50;4.15;;;2.97;;
60722;SDS011;46574;52.818;6.516;2022-12-29T02:55:21;3.08;;;2.70;;
60722;SDS011;46574;52.818;6.516;2022-12-29T02:57:47;3.03;;;2.70;;
60722;SDS011;46574;52.818;6.516;2022-12-29T03:00:14;3.83;;;2.53;;
60722;SDS011;46574;52.818;6.516;2022-12-29T03:05:35;2.65;;;2.40;;
60722;SDS011;46574;52.818;6.516;2022-12-29T03:11:02;2.55;;;2.35;;
60722;SDS011;46574;52.818;6.516;2022-12-29T03:13:37;2.40;;;2.20;;
60722;SDS011;46574;52.818;6.516;2022-12-29T03:19:36;2.30;;;2.08;;
60722;SDS011;46574;52.818;6.516;2022-12-29T03:22:10;3.55;;;2.28;;
60722;SDS011;46574;52.818;6.516;2022-12-29T03:24:54;2.50;;;2.20;;
60722;SDS011;46574;52.818;6.516;2022-12-29T03:27:34;2.85;;;2.42;;
60722;SDS011;46574;52.818;6.516;2022-12-29T03:30:22;2.58;;;2.17;;
60722;SDS011;46574;52.818;6.516;2022-12-29T03:32:50;3.35;;;2.10;;
60722;SDS011;46574;52.818;6.516;2022-12-29T03:35:19;2.50;;;2.30;;
60722;SDS011;46574;52.818;6.516;2022-12-29T03:37:52;2.28;;;2.08;;
60722;SDS011;46574;52.818;6.516;2022-12-29T03:40:24;2.65;;;2.10;;
60722;SDS011;46574;52.818;6.516;2022-12-29T03:42:52;2.17;;;1.98;;
60722;SDS011;46574;52.818;6.516;2022-12-29T03:45:18;2.05;;;1.95;;
60722;SDS011;46574;52.818;6.516;2022-12-29T03:47:44;1.90;;;1.80;;
60722;SDS011;46574;52.818;6.516;2022-12-29T03:50:11;2.90;;;2.10;;
60722;SDS011;46574;52.818;6.516;2022-12-29T03:52:37;2.47;;;1.70;;
60722;SDS011;46574;52.818;6.516;2022-12-29T03:55:03;5.30;;;2.35;;
60722;SDS011;46574;52.818;6.516;2022-12-29T03:57:29;3.47;;;2.30;;
60722;SDS011;46574;52.818;6.516;2022-12-29T03:59:54;4.72;;;2.58;;
60722;SDS011;46574;52.818;6.516;2022-12-29T04:02:20;2.88;;;1.52;;
60722;SDS011;46574;52.818;6.516;2022-12-29T04:04:46;2.83;;;1.80;;
60722;SDS011;46574;52.818;6.516;2022-12-29T04:07:11;4.65;;;2.33;;
60722;SDS011;46574;52.818;6.516;2022-12-29T04:09:37;2.22;;;1.70;;
60722;SDS011;46574;52.818;6.516;2022-12-29T04:12:03;3.13;;;1.70;;
60722;SDS011;46574;52.818;6.516;2022-12-29T04:14:29;1.42;;;1.33;;
60722;SDS011;46574;52.818;6.516;2022-12-29T04:16:54;3.10;;;1.77;;
60722;SDS011;46574;52.818;6.516;2022-12-29T04:19:20;3.40;;;1.75;;
60722;SDS011;46574;52.818;6.516;2022-12-29T04:21:46;2.95;;;1.40;;
60722;SDS011;46574;52.818;6.516;2022-12-29T04:24:12;3.05;;;1.88;;
60722;SDS011;46574;52.818;6.516;2022-12-29T04:26:38;2.10;;;1.92;;
60722;SDS011;46574;52.818;6.516;2022-12-29T04:29:03;4.65;;;2.00;;
60722;SDS011;46574;52.818;6.516;2022-12-29T04:31:29;3.47;;;2.17;;
60722;SDS011;46574;52.818;6.516;2022-12-29T04:33:55;4.82;;;2.25;;
60722;SDS011;46574;52.818;6.516;2022-12-29T04:36:22;5.03;;;2.10;;
60722;SDS011;46574;52.818;6.516;2022-12-29T04:38:48;3.35;;;2.00;;
60722;SDS011;46574;52.818;6.516;2022-12-29T04:41:14;2.70;;;1.83;;
60722;SDS011;46574;52.818;6.516;2022-12-29T04:43:39;3.85;;;1.67;;
60722;SDS011;46574;52.818;6.516;2022-12-29T04:46:05;4.35;;;1.70;;
60722;SDS011;46574;52.818;6.516;2022-12-29T04:48:31;4.10;;;1.70;;
60722;SDS011;46574;52.818;6.516;2022-12-29T04:50:57;3.42;;;1.52;;
60722;SDS011;46574;52.818;6.516;2022-12-29T04:53:23;5.55;;;1.75;;
60722;SDS011;46574;52.818;6.516;2022-12-29T04:55:51;5.82;;;1.80;;
60722;SDS011;46574;52.818;6.516;2022-12-29T04:58:18;5.68;;;1.90;;
60722;SDS011;46574;52.818;6.516;2022-12-29T05:00:44;7.13;;;1.48;;
60722;SDS011;46574;52.818;6.516;2022-12-29T05:03:10;5.88;;;1.88;;
60722;SDS011;46574;52.818;6.516;2022-12-29T05:05:36;5.90;;;2.08;;
60722;SDS011;46574;52.818;6.516;2022-12-29T05:08:02;4.85;;;1.52;;
60722;SDS011;46574;52.818;6.516;2022-12-29T05:10:28;6.03;;;1.40;;
60722;SDS011;46574;52.818;6.516;2022-12-29T05:12:53;5.35;;;1.95;;
60722;SDS011;46574;52.818;6.516;2022-12-29T05:15:19;4.80;;;1.58;;
60722;SDS011;46574;52.818;6.516;2022-12-29T05:17:45;4.18;;;1.40;;
60722;SDS011;46574;52.818;6.516;2022-12-29T05:20:11;4.75;;;1.45;;
60722;SDS011;46574;52.818;6.516;2022-12-29T05:22:37;6.75;;;1.75;;
60722;SDS011;46574;52.818;6.516;2022-12-29T05:25:03;4.68;;;1.38;;
60722;SDS011;46574;52.818;6.516;2022-12-29T05:27:28;3.50;;;1.35;;
60722;SDS011;46574;52.818;6.516;2022-12-29T05:29:54;4.35;;;1.45;;
60722;SDS011;46574;52.818;6.516;2022-12-29T05:32:20;4.72;;;1.40;;
60722;SDS011;46574;52.818;6.516;2022-12-29T05:34:46;3.25;;;1.33;;
60722;SDS011;46574;52.818;6.516;2022-12-29T05:37:12;3.90;;;1.30;;
60722;SDS011;46574;52.818;6.516;2022-12-29T05:39:37;4.80;;;1.65;;
60722;SDS011;46574;52.818;6.516;2022-12-29T05:42:03;4.68;;;1.75;;
60722;SDS011;46574;52.818;6.516;2022-12-29T05:44:28;3.17;;;1.55;;
60722;SDS011;46574;52.818;6.516;2022-12-29T05:46:54;4.70;;;1.70;;
60722;SDS011;46574;52.818;6.516;2022-12-29T05:49:23;4.20;;;1.58;;
60722;SDS011;46574;52.818;6.516;2022-12-29T05:51:48;4.25;;;1.83;;
60722;SDS011;46574;52.818;6.516;2022-12-29T05:54:14;2.67;;;1.90;;
60722;SDS011;46574;52.818;6.516;2022-12-29T05:56:40;2.65;;;1.70;;
60722;SDS011;46574;52.818;6.516;2022-12-29T05:59:05;4.47;;;1.77;;
60722;SDS011;46574;52.818;6.516;2022-12-29T06:01:31;4.90;;;1.75;;
60722;SDS011;46574;52.818;6.516;2022-12-29T06:03:59;5.65;;;2.10;;
60722;SDS011;46574;52.818;6.516;2022-12-29T06:06:25;6.45;;;1.80;;
60722;SDS011;46574;52.818;6.516;2022-12-29T06:08:50;6.63;;;2.13;;
60722;SDS011;46574;52.818;6.516;2022-12-29T06:11:16;3.47;;;1.27;;
60722;SDS011;46574;52.818;6.516;2022-12-29T06:13:41;5.10;;;1.77;;
60722;SDS011;46574;52.818;6.516;2022-12-29T06:16:07;5.70;;;1.60;;
60722;SDS011;46574;52.818;6.516;2022-12-29T06:18:33;5.47;;;1.70;;
60722;SDS011;46574;52.818;6.516;2022-12-29T06:20:59;7.55;;;1.80;;
60722;SDS011;46574;52.818;6.516;2022-12-29T06:23:26;3.63;;;1.40;;
60722;SDS011;46574;52.818;6.516;2022-12-29T06:25:52;5.60;;;1.85;;
60722;SDS011;46574;52.818;6.516;2022-12-29T06:28:18;5.10;;;1.60;;
60722;SDS011;46574;52.818;6.516;2022-12-29T06:30:44;7.22;;;1.60;;
60722;SDS011;46574;52.818;6.516;2022-12-29T06:33:11;4.45;;;1.45;;
60722;SDS011;46574;52.818;6.516;2022-12-29T06:35:37;7.70;;;1.90;;
60722;SDS011;46574;52.818;6.516;2022-12-29T06:38:04;5.38;;;1.80;;
60722;SDS011;46574;52.818;6.516;2022-12-29T06:40:29;6.75;;;1.70;;
60722;SDS011;46574;52.818;6.516;2022-12-29T06:42:55;5.28;;;1.90;;
60722;SDS011;46574;52.818;6.516;2022-12-29T06:45:21;5.25;;;1.83;;
60722;SDS011;46574;52.818;6.516;2022-12-29T06:47:46;6.60;;;1.80;;
60722;SDS011;46574;52.818;6.516;2022-12-29T06:50:12;3.28;;;1.50;;
60722;SDS011;46574;52.818;6.516;2022-12-29T06:52:37;6.05;;;1.85;;
60722;SDS011;46574;52.818;6.516;2022-12-29T06:55:03;3.90;;;1.40;;
60722;SDS011;46574;52.818;6.516;2022-12-29T06:57:29;5.32;;;1.50;;
60722;SDS011;46574;52.818;6.516;2022-12-29T06:59:55;5.63;;;1.40;;
60722;SDS011;46574;52.818;6.516;2022-12-29T07:02:21;4.43;;;2.00;;
60722;SDS011;46574;52.818;6.516;2022-12-29T07:04:50;6.68;;;1.60;;
60722;SDS011;46574;52.818;6.516;2022-12-29T07:07:19;4.40;;;1.55;;
60722;SDS011;46574;52.818;6.516;2022-12-29T07:09:45;6.93;;;1.85;;
60722;SDS011;46574;52.818;6.516;2022-12-29T07:12:11;10.57;;;2.10;;
60722;SDS011;46574;52.818;6.516;2022-12-29T07:14:37;7.18;;;1.70;;
60722;SDS011;46574;52.818;6.516;2022-12-29T07:17:02;8.65;;;2.55;;
60722;SDS011;46574;52.818;6.516;2022-12-29T07:19:31;8.80;;;2.03;;
60722;SDS011;46574;52.818;6.516;2022-12-29T07:21:57;7.63;;;1.80;;
60722;SDS011;46574;52.818;6.516;2022-12-29T07:24:23;7.38;;;2.13;;
60722;SDS011;46574;52.818;6.516;2022-12-29T07:26:50;4.63;;;1.73;;
60722;SDS011;46574;52.818;6.516;2022-12-29T07:29:16;6.57;;;2.03;;
60722;SDS011;46574;52.818;6.516;2022-12-29T07:31:42;6.18;;;2.20;;
60722;SDS011;46574;52.818;6.516;2022-12-29T07:34:08;7.05;;;1.80;;
60722;SDS011;46574;52.818;6.516;2022-12-29T07:36:34;8.40;;;1.75;;
60722;SDS011;46574;52.818;6.516;2022-12-29T07:39:00;5.63;;;1.60;;
60722;SDS011;46574;52.818;6.516;2022-12-29T07:41:26;7.00;;;1.50;;
60722;SDS011;46574;52.818;6.516;2022-12-29T07:43:51;5.95;;;1.48;;
60722;SDS011;46574;52.818;6.516;2022-12-29T07:46:17;6.80;;;1.63;;
60722;SDS011;46574;52.818;6.516;2022-12-29T07:48:42;6.50;;;1.63;;
60722;SDS011;46574;52.818;6.516;2022-12-29T07:51:08;6.72;;;1.63;;
60722;SDS011;46574;52.818;6.516;2022-12-29T07:53:35;6.35;;;1.80;;
60722;SDS011;46574;52.818;6.516;2022-12-29T07:56:00;8.10;;;1.90;;
60722;SDS011;46574;52.818;6.516;2022-12-29T07:58:26;8.98;;;2.10;;
60722;SDS011;46574;52.818;6.516;2022-12-29T08:00:55;8.77;;;2.13;;
60722;SDS011;46574;52.818;6.516;2022-12-29T08:03:21;7.18;;;1.85;;
60722;SDS011;46574;52.818;6.516;2022-12-29T08:05:48;7.40;;;1.92;;
60722;SDS011;46574;52.818;6.516;2022-12-29T08:08:13;6.55;;;1.73;;
60722;SDS011;46574;52.818;6.516;2022-12-29T08:10:39;8.75;;;2.25;;
60722;SDS011;46574;52.818;6.516;2022-12-29T08:13:05;9.02;;;2.30;;
60722;SDS011;46574;52.818;6.516;2022-12-29T08:15:30;7.70;;;2.30;;
60722;SDS011;46574;52.818;6.516;2022-12-29T08:17:56;8.52;;;2.45;;
60722;SDS011;46574;52.818;6.516;2022-12-29T08:20:22;11.68;;;2.63;;
60722;SDS011;46574;52.818;6.516;2022-12-29T08:22:47;7.82;;;2.15;;
60722;SDS011;46574;52.818;6.516;2022-12-29T08:25:13;8.00;;;2.15;;
60722;SDS011;46574;52.818;6.516;2022-12-29T08:27:40;9.60;;;2.28;;
60722;SDS011;46574;52.818;6.516;2022-12-29T08:30:07;10.40;;;2.67;;
60722;SDS011;46574;52.818;6.516;2022-12-29T08:32:33;11.95;;;2.42;;
60722;SDS011;46574;52.818;6.516;2022-12-29T08:34:59;11.18;;;2.65;;
60722;SDS011;46574;52.818;6.516;2022-12-29T08:37:25;8.80;;;2.20;;
60722;SDS011;46574;52.818;6.516;2022-12-29T08:39:51;9.15;;;2.00;;
60722;SDS011;46574;52.818;6.516;2022-12-29T08:42:16;8.05;;;2.38;;
60722;SDS011;46574;52.818;6.516;2022-12-29T08:44:42;10.10;;;2.38;;
60722;SDS011;46574;52.818;6.516;2022-12-29T08:47:09;5.30;;;1.80;;
60722;SDS011;46574;52.818;6.516;2022-12-29T08:49:35;9.60;;;2.50;;
60722;SDS011;46574;52.818;6.516;2022-12-29T08:52:01;9.20;;;2.25;;
60722;SDS011;46574;52.818;6.516;2022-12-29T08:54:27;8.85;;;2.20;;
60722;SDS011;46574;52.818;6.516;2022-12-29T08:56:52;7.40;;;1.75;;
60722;SDS011;46574;52.818;6.516;2022-12-29T08:59:18;6.07;;;2.08;;
60722;SDS011;46574;52.818;6.516;2022-12-29T09:01:44;9.05;;;2.30;;
60722;SDS011;46574;52.818;6.516;2022-12-29T09:04:10;8.82;;;2.33;;
60722;SDS011;46574;52.818;6.516;2022-12-29T09:06:38;11.15;;;2.42;;
60722;SDS011;46574;52.818;6.516;2022-12-29T09:09:03;7.57;;;2.08;;
60722;SDS011;46574;52.818;6.516;2022-12-29T09:11:32;8.25;;;2.30;;
60722;SDS011;46574;52.818;6.516;2022-12-29T09:13:57;7.28;;;1.98;;
60722;SDS011;46574;52.818;6.516;2022-12-29T09:16:24;8.43;;;2.67;;
60722;SDS011;46574;52.818;6.516;2022-12-29T09:18:50;12.43;;;2.50;;
60722;SDS011;46574;52.818;6.516;2022-12-29T09:21:15;9.10;;;2.25;;
60722;SDS011;46574;52.818;6.516;2022-12-29T09:23:41;8.65;;;2.30;;
60722;SDS011;46574;52.818;6.516;2022-12-29T09:26:07;8.88;;;2.30;;
60722;SDS011;46574;52.818;6.516;2022-12-29T09:28:33;8.15;;;1.85;;
60722;SDS011;46574;52.818;6.516;2022-12-29T09:30:59;11.23;;;2.42;;
60722;SDS011;46574;52.818;6.516;2022-12-29T09:33:25;7.47;;;2.03;;
60722;SDS011;46574;52.818;6.516;2022-12-29T09:35:52;5.88;;;2.25;;
60722;SDS011;46574;52.818;6.516;2022-12-29T09:38:20;9.32;;;2.35;;
60722;SDS011;46574;52.818;6.516;2022-12-29T09:40:49;10.25;;;2.03;;
60722;SDS011;46574;52.818;6.516;2022-12-29T09:44:03;9.18;;;2.88;;
60722;SDS011;46574;52.818;6.516;2022-12-29T09:46:27;8.40;;;2.28;;
60722;SDS011;46574;52.818;6.516;2022-12-29T09:51:45;5.95;;;1.98;;
60722;SDS011;46574;52.818;6.516;2022-12-29T09:54:23;5.38;;;2.00;;
60722;SDS011;46574;52.818;6.516;2022-12-29T09:56:52;6.88;;;2.35;;
60722;SDS011;46574;52.818;6.516;2022-12-29T09:59:19;6.70;;;2.22;;
60722;SDS011;46574;52.818;6.516;2022-12-29T10:04:29;9.18;;;2.80;;
60722;SDS011;46574;52.818;6.516;2022-12-29T10:09:43;10.23;;;2.35;;
60722;SDS011;46574;52.818;6.516;2022-12-29T10:12:29;8.02;;;2.22;;
60722;SDS011;46574;52.818;6.516;2022-12-29T10:15:14;8.48;;;2.47;;
60722;SDS011;46574;52.818;6.516;2022-12-29T10:25:57;8.57;;;2.53;;
60722;SDS011;46574;52.818;6.516;2022-12-29T10:30:58;7.25;;;1.95;;
60722;SDS011;46574;52.818;6.516;2022-12-29T10:33:30;8.68;;;2.03;;
60722;SDS011;46574;52.818;6.516;2022-12-29T10:36:02;9.35;;;2.20;;
60722;SDS011;46574;52.818;6.516;2022-12-29T10:41:17;6.72;;;1.85;;
60722;SDS011;46574;52.818;6.516;2022-12-29T10:46:19;7.05;;;2.20;;
60722;SDS011;46574;52.818;6.516;2022-12-29T10:48:50;6.18;;;1.90;;
60722;SDS011;46574;52.818;6.516;2022-12-29T10:51:22;7.72;;;2.10;;
60722;SDS011;46574;52.818;6.516;2022-12-29T10:53:58;9.88;;;2.25;;
60722;SDS011;46574;52.818;6.516;2022-12-29T10:56:34;9.60;;;2.70;;
60722;SDS011;46574;52.818;6.516;2022-12-29T11:07:22;6.32;;;2.00;;
60722;SDS011;46574;52.818;6.516;2022-12-29T11:09:48;6.97;;;2.20;;
60722;SDS011;46574;52.818;6.516;2022-12-29T11:12:18;6.40;;;2.20;;
60722;SDS011;46574;52.818;6.516;2022-12-29T11:14:44;8.65;;;2.05;;
60722;SDS011;46574;52.818;6.516;2022-12-29T11:17:11;5.97;;;2.17;;
60722;SDS011;46574;52.818;6.516;2022-12-29T11:19:41;9.65;;;2.63;;
60722;SDS011;46574;52.818;6.516;2022-12-29T11:24:51;4.85;;;2.20;;
60722;SDS011;46574;52.818;6.516;2022-12-29T11:27:19;9.23;;;2.58;;
60722;SDS011;46574;52.818;6.516;2022-12-29T11:29:48;7.03;;;2.67;;
60722;SDS011;46574;52.818;6.516;2022-12-29T11:34:49;9.82;;;2.72;;
60722;SDS011;46574;52.818;6.516;2022-12-29T11:37:19;10.18;;;3.53;;
60722;SDS011;46574;52.818;6.516;2022-12-29T11:39:58;9.68;;;2.78;;
60722;SDS011;46574;52.818;6.516;2022-12-29T11:42:36;10.80;;;2.90;;
60722;SDS011;46574;52.818;6.516;2022-12-29T11:45:15;8.40;;;2.83;;
60722;SDS011;46574;52.818;6.516;2022-12-29T11:47:44;8.05;;;2.75;;
60722;SDS011;46574;52.818;6.516;2022-12-29T11:50:29;8.48;;;3.13;;
60722;SDS011;46574;52.818;6.516;2022-12-29T11:52:58;8.30;;;2.92;;
60722;SDS011;46574;52.818;6.516;2022-12-29T11:55:25;8.38;;;2.88;;
60722;SDS011;46574;52.818;6.516;2022-12-29T11:57:52;9.02;;;2.95;;
60722;SDS011;46574;52.818;6.516;2022-12-29T12:00:23;8.07;;;3.13;;
60722;SDS011;46574;52.818;6.516;2022-12-29T12:06:07;15.60;;;4.32;;
60722;SDS011;46574;52.818;6.516;2022-12-29T12:08:22;9.57;;;3.42;;
60722;SDS011;46574;52.818;6.516;2022-12-29T12:11:17;10.00;;;4.57;;
60722;SDS011;46574;52.818;6.516;2022-12-29T12:16:18;8.50;;;2.85;;
60722;SDS011;46574;52.818;6.516;2022-12-29T12:18:52;11.30;;;2.83;;
60722;SDS011;46574;52.818;6.516;2022-12-29T12:21:32;11.80;;;2.65;;
60722;SDS011;46574;52.818;6.516;2022-12-29T12:24:11;8.82;;;3.13;;
60722;SDS011;46574;52.818;6.516;2022-12-29T12:29:34;10.38;;;2.67;;
60722;SDS011;46574;52.818;6.516;2022-12-29T12:32:14;12.43;;;3.22;;
60722;SDS011;46574;52.818;6.516;2022-12-29T12:34:47;11.55;;;3.47;;
60722;SDS011;46574;52.818;6.516;2022-12-29T12:37:21;9.63;;;2.78;;
60722;SDS011;46574;52.818;6.516;2022-12-29T12:45:27;10.95;;;3.03;;
60722;SDS011;46574;52.818;6.516;2022-12-29T12:51:33;15.23;;;3.17;;
60722;SDS011;46574;52.818;6.516;2022-12-29T13:07:50;10.63;;;3.10;;
60722;SDS011;46574;52.818;6.516;2022-12-29T13:10:35;13.25;;;2.80;;
60722;SDS011;46574;52.818;6.516;2022-12-29T13:21:56;12.60;;;2.55;;
60722;SDS011;46574;52.818;6.516;2022-12-29T13:27:32;7.95;;;2.05;;
60722;SDS011;46574;52.818;6.516;2022-12-29T13:30:15;9.88;;;2.60;;
60722;SDS011;46574;52.818;6.516;2022-12-29T13:38:43;13.68;;;2.55;;
60722;SDS011;46574;52.818;6.516;2022-12-29T13:41:16;12.30;;;2.70;;
60722;SDS011;46574;52.818;6.516;2022-12-29T13:44:14;9.45;;;2.40;;
60722;SDS011;46574;52.818;6.516;2022-12-29T13:46:43;11.65;;;2.67;;
60722;SDS011;46574;52.818;6.516;2022-12-29T13:49:18;12.10;;;2.40;;
60722;SDS011;46574;52.818;6.516;2022-12-29T13:51:49;12.82;;;2.70;;
60722;SDS011;46574;52.818;6.516;2022-12-29T14:02:24;9.30;;;2.30;;
60722;SDS011;46574;52.818;6.516;2022-12-29T14:07:48;12.30;;;2.88;;
60722;SDS011;46574;52.818;6.516;2022-12-29T14:13:02;9.70;;;2.65;;
60722;SDS011;46574;52.818;6.516;2022-12-29T14:15:30;10.70;;;2.20;;
60722;SDS011;46574;52.818;6.516;2022-12-29T14:20:50;9.88;;;1.88;;
60722;SDS011;46574;52.818;6.516;2022-12-29T14:28:36;9.25;;;2.33;;
60722;SDS011;46574;52.818;6.516;2022-12-29T14:36:42;4.05;;;1.85;;
60722;SDS011;46574;52.818;6.516;2022-12-29T14:44:48;7.80;;;1.98;;
60722;SDS011;46574;52.818;6.516;2022-12-29T14:47:18;9.00;;;1.80;;
60722;SDS011;46574;52.818;6.516;2022-12-29T14:49:52;6.78;;;1.95;;
60722;SDS011;46574;52.818;6.516;2022-12-29T14:52:20;7.80;;;2.08;;
60722;SDS011;46574;52.818;6.516;2022-12-29T14:54:54;7.97;;;2.17;;
60722;SDS011;46574;52.818;6.516;2022-12-29T14:57:41;9.55;;;2.08;;
60722;SDS011;46574;52.818;6.516;2022-12-29T15:00:34;10.23;;;2.40;;
60722;SDS011;46574;52.818;6.516;2022-12-29T15:03:05;10.63;;;4.15;;
60722;SDS011;46574;52.818;6.516;2022-12-29T15:05:50;7.75;;;2.67;;
60722;SDS011;46574;52.818;6.516;2022-12-29T15:08:18;6.72;;;2.20;;
60722;SDS011;46574;52.818;6.516;2022-12-29T15:13:35;8.23;;;1.98;;
60722;SDS011;46574;52.818;6.516;2022-12-29T15:16:03;7.47;;;2.47;;
60722;SDS011;46574;52.818;6.516;2022-12-29T15:18:30;14.43;;;3.33;;
60722;SDS011;46574;52.818;6.516;2022-12-29T15:20:58;10.48;;;2.58;;
60722;SDS011;46574;52.818;6.516;2022-12-29T15:23:27;11.40;;;2.45;;
60722;SDS011;46574;52.818;6.516;2022-12-29T15:26:04;10.15;;;2.35;;
60722;SDS011;46574;52.818;6.516;2022-12-29T15:28:45;11.35;;;2.85;;
60722;SDS011;46574;52.818;6.516;2022-12-29T15:31:13;8.07;;;2.40;;
60722;SDS011;46574;52.818;6.516;2022-12-29T15:33:41;6.68;;;2.45;;
60722;SDS011;46574;52.818;6.516;2022-12-29T15:36:10;8.77;;;3.03;;
60722;SDS011;46574;52.818;6.516;2022-12-29T15:38:38;10.07;;;3.10;;
60722;SDS011;46574;52.818;6.516;2022-12-29T15:43:45;11.48;;;3.00;;
60722;SDS011;46574;52.818;6.516;2022-12-29T15:46:20;14.70;;;2.80;;
60722;SDS011;46574;52.818;6.516;2022-12-29T15:48:46;13.50;;;3.17;;
60722;SDS011;46574;52.818;6.516;2022-12-29T15:53:58;10.20;;;2.47;;
60722;SDS011;46574;52.818;6.516;2022-12-29T15:56:24;9.77;;;3.20;;
60722;SDS011;46574;52.818;6.516;2022-12-29T15:58:53;12.82;;;2.85;;
60722;SDS011;46574;52.818;6.516;2022-12-29T16:01:32;11.50;;;2.55;;
60722;SDS011;46574;52.818;6.516;2022-12-29T16:03:59;8.30;;;2.22;;
60722;SDS011;46574;52.818;6.516;2022-12-29T16:06:29;8.25;;;2.70;;
60722;SDS011;46574;52.818;6.516;2022-12-29T16:09:01;8.80;;;2.63;;
60722;SDS011;46574;52.818;6.516;2022-12-29T16:11:31;6.85;;;2.83;;
60722;SDS011;46574;52.818;6.516;2022-12-29T16:14:02;8.75;;;2.90;;
60722;SDS011;46574;52.818;6.516;2022-12-29T16:16:35;5.85;;;2.33;;
60722;SDS011;46574;52.818;6.516;2022-12-29T16:19:13;5.88;;;2.65;;
60722;SDS011;46574;52.818;6.516;2022-12-29T16:21:44;5.93;;;2.60;;
60722;SDS011;46574;52.818;6.516;2022-12-29T16:24:14;7.10;;;2.60;;
60722;SDS011;46574;52.818;6.516;2022-12-29T16:26:49;7.55;;;2.63;;
60722;SDS011;46574;52.818;6.516;2022-12-29T16:29:20;5.78;;;2.28;;
60722;SDS011;46574;52.818;6.516;2022-12-29T16:31:54;5.55;;;2.72;;
60722;SDS011;46574;52.818;6.516;2022-12-29T16:34:27;6.30;;;2.80;;
60722;SDS011;46574;52.818;6.516;2022-12-29T16:36:56;9.10;;;2.97;;
60722;SDS011;46574;52.818;6.516;2022-12-29T16:39:35;6.60;;;2.70;;
60722;SDS011;46574;52.818;6.516;2022-12-29T16:42:32;6.07;;;2.33;;
60722;SDS011;46574;52.818;6.516;2022-12-29T16:45:28;5.63;;;2.38;;
60722;SDS011;46574;52.818;6.516;2022-12-29T16:50:41;7.15;;;2.33;;
60722;SDS011;46574;52.818;6.516;2022-12-29T16:55:46;8.45;;;3.13;;
60722;SDS011;46574;52.818;6.516;2022-12-29T16:58:16;5.00;;;2.42;;
60722;SDS011;46574;52.818;6.516;2022-12-29T17:00:46;11.68;;;3.17;;
60722;SDS011;46574;52.818;6.516;2022-12-29T17:03:12;7.13;;;2.80;;
60722;SDS011;46574;52.818;6.516;2022-12-29T17:05:38;4.13;;;1.55;;
60722;SDS011;46574;52.818;6.516;2022-12-29T17:08:14;4.65;;;1.52;;
60722;SDS011;46574;52.818;6.516;2022-12-29T17:10:48;3.13;;;1.30;;
60722;SDS011;46574;52.818;6.516;2022-12-29T17:13:35;7.05;;;2.20;;
60722;SDS011;46574;52.818;6.516;2022-12-29T17:16:01;4.40;;;1.83;;
60722;SDS011;46574;52.818;6.516;2022-12-29T17:18:27;4.68;;;2.22;;
60722;SDS011;46574;52.818;6.516;2022-12-29T17:20:53;6.05;;;2.40;;
60722;SDS011;46574;52.818;6.516;2022-12-29T17:23:19;8.77;;;3.40;;
60722;SDS011;46574;52.818;6.516;2022-12-29T17:25:44;8.60;;;4.05;;
60722;SDS011;46574;52.818;6.516;2022-12-29T17:28:12;10.48;;;4.47;;
60722;SDS011;46574;52.818;6.516;2022-12-29T17:30:47;10.90;;;4.80;;
60722;SDS011;46574;52.818;6.516;2022-12-29T17:33:15;10.45;;;4.63;;
60722;SDS011;46574;52.818;6.516;2022-12-29T17:35:42;10.38;;;4.55;;
60722;SDS011;46574;52.818;6.516;2022-12-29T17:38:19;10.43;;;4.70;;
60722;SDS011;46574;52.818;6.516;2022-12-29T17:41:15;7.32;;;4.57;;
60722;SDS011;46574;52.818;6.516;2022-12-29T17:43:40;10.90;;;4.95;;
60722;SDS011;46574;52.818;6.516;2022-12-29T17:46:06;10.40;;;5.20;;
60722;SDS011;46574;52.818;6.516;2022-12-29T17:48:32;11.93;;;5.22;;